Time;durP1;ratioP1;P1;durP2;ratioP2;P2;SDS_P1;SDS_P2;PMS_P1;PMS_P2;Temp;Humidity;BMP_temperature;BMP_pressure;BME280_temperature;BME280_humidity;BME280_pressure;Samples;Min_cycle;Max_cycle;Signal;HPM_P1;HPM_P2
2022/12/09 00:01:22;;;;;;;17.38;13.35;;;4.70;99.90;;;;;;4971463;28;20244;-83
2022/12/09 00:03:51;;;;;;;17.85;12.98;;;4.70;99.90;;;;;;4971289;28;20237;-82
2022/12/09 00:06:22;;;;;;;14.27;12.48;;;4.80;99.90;;;;;;4971054;28;20250;-84
2022/12/09 00:08:51;;;;;;;13.15;11.82;;;4.80;99.90;;;;;;4970837;28;20220;-88
2022/12/09 00:11:21;;;;;;;14.60;12.82;;;4.80;99.90;;;;;;4970928;28;20276;-88
2022/12/09 00:13:51;;;;;;;14.02;10.95;;;4.80;99.90;;;;;;4974784;28;20294;-88
2022/12/09 00:16:20;;;;;;;14.07;12.52;;;4.80;99.90;;;;;;4974797;28;20220;-89
2022/12/09 00:18:49;;;;;;;18.90;13.98;;;4.80;99.90;;;;;;4974114;28;20236;-88
2022/12/09 00:21:21;;;;;;;13.23;11.93;;;4.80;99.90;;;;;;4974526;28;20291;-88
2022/12/09 00:23:51;;;;;;;15.55;13.10;;;4.80;99.90;;;;;;4974305;28;20228;-88
2022/12/09 00:26:20;;;;;;;15.63;12.43;;;4.80;99.90;;;;;;4974110;28;20276;-83
2022/12/09 00:28:50;;;;;;;15.13;12.82;;;4.80;99.90;;;;;;4974491;28;20299;-83
2022/12/09 00:31:23;;;;;;;13.48;12.00;;;4.80;99.90;;;;;;4974467;28;20244;-83
2022/12/09 00:33:53;;;;;;;15.13;13.23;;;4.80;99.90;;;;;;4974363;28;20235;-83
2022/12/09 00:36:23;;;;;;;15.02;13.45;;;4.80;99.90;;;;;;4974566;28;20243;-83
2022/12/09 00:38:53;;;;;;;15.05;12.85;;;4.80;99.90;;;;;;4974717;28;20279;-83
2022/12/09 00:41:21;;;;;;;12.40;11.20;;;4.70;99.90;;;;;;4976327;28;20295;-83
2022/12/09 00:43:50;;;;;;;12.90;11.60;;;4.70;99.90;;;;;;4976607;28;20320;-83
2022/12/09 00:46:18;;;;;;;15.57;12.73;;;4.70;99.90;;;;;;4976203;28;20222;-83
2022/12/09 00:48:47;;;;;;;14.25;11.77;;;4.70;99.90;;;;;;4975910;28;20208;-89
2022/12/09 00:51:17;;;;;;;13.20;11.65;;;4.70;99.90;;;;;;4975938;28;20285;-89
2022/12/09 00:53:52;;;;;;;13.68;12.27;;;4.70;99.90;;;;;;4976273;28;20232;-89
2022/12/09 00:56:21;;;;;;;16.17;12.48;;;4.70;99.90;;;;;;4976651;28;20211;-89
2022/12/09 00:58:49;;;;;;;15.43;11.93;;;4.70;99.90;;;;;;4976028;28;20232;-89
2022/12/09 01:01:18;;;;;;;13.48;11.38;;;4.60;99.90;;;;;;4975914;28;20235;-89
2022/12/09 01:03:47;;;;;;;11.23;10.13;;;4.60;99.90;;;;;;4976128;28;20224;-89
2022/12/09 01:06:19;;;;;;;11.85;9.90;;;4.60;99.90;;;;;;4976224;28;20216;-83
2022/12/09 01:08:49;;;;;;;12.88;10.43;;;4.60;99.90;;;;;;4976304;28;20215;-83
2022/12/09 01:11:19;;;;;;;16.65;10.18;;;4.60;99.90;;;;;;4975726;28;20227;-83
2022/12/09 01:13:50;;;;;;;11.27;8.90;;;4.60;99.90;;;;;;4975621;28;20225;-89
2022/12/09 01:16:21;;;;;;;12.15;8.63;;;4.60;99.90;;;;;;4975709;28;20219;-89
2022/12/09 01:18:50;;;;;;;8.80;7.93;;;4.60;99.90;;;;;;4975458;28;20256;-89
2022/12/09 01:21:19;;;;;;;8.13;7.32;;;4.60;99.90;;;;;;4975808;28;20268;-88
2022/12/09 01:23:48;;;;;;;7.75;7.03;;;4.50;99.90;;;;;;4974576;28;20224;-89
2022/12/09 01:26:17;;;;;;;8.05;7.25;;;4.50;99.90;;;;;;4975416;28;20204;-89
2022/12/09 01:28:49;;;;;;;7.35;6.65;;;4.50;99.90;;;;;;4975451;28;20291;-88
2022/12/09 01:31:20;;;;;;;8.00;7.22;;;4.50;99.90;;;;;;4975665;28;20224;-88
2022/12/09 01:33:49;;;;;;;9.73;7.35;;;4.50;99.90;;;;;;4975907;28;20287;-90
2022/12/09 01:36:20;;;;;;;8.65;7.78;;;4.50;99.90;;;;;;4975431;28;20209;-89
2022/12/09 01:38:50;;;;;;;7.95;7.15;;;4.50;99.90;;;;;;4975154;28;20247;-88
2022/12/09 01:41:23;;;;;;;7.68;6.93;;;4.50;99.90;;;;;;4975416;28;20219;-89
2022/12/09 01:44:13;;;;;;;8.30;7.43;;;4.50;99.90;;;;;;4975809;28;20239;-88
2022/12/09 01:46:43;;;;;;;7.47;6.78;;;4.50;99.90;;;;;;4975190;28;20224;-89
2022/12/09 01:49:17;;;;;;;7.60;6.80;;;4.50;99.90;;;;;;4975244;28;20216;-89
2022/12/09 01:51:52;;;;;;;8.75;7.35;;;4.50;99.90;;;;;;4975050;28;20279;-89
2022/12/09 01:54:22;;;;;;;5.72;5.22;;;4.50;99.90;;;;;;4975171;28;20315;-89
2022/12/09 01:56:51;;;;;;;8.10;6.93;;;4.50;99.90;;;;;;4975132;28;20214;-89
2022/12/09 01:59:20;;;;;;;6.40;5.82;;;4.50;99.90;;;;;;4975342;28;20267;-83
2022/12/09 02:01:52;;;;;;;6.97;6.32;;;4.50;99.90;;;;;;4975173;28;20212;-89
2022/12/09 02:04:21;;;;;;;7.05;6.45;;;4.50;99.90;;;;;;4975089;28;20305;-89
2022/12/09 02:06:51;;;;;;;8.43;6.05;;;4.50;99.90;;;;;;4974623;28;20208;-83
2022/12/09 02:09:20;;;;;;;14.93;7.60;;;4.50;99.90;;;;;;4974805;28;20212;-83
2022/12/09 02:12:01;;;;;;;6.53;5.90;;;4.50;99.90;;;;;;4974110;28;20208;-83
2022/12/09 02:14:34;;;;;;;6.97;6.20;;;4.50;99.90;;;;;;4974569;28;20232;-84
2022/12/09 02:17:17;;;;;;;7.50;6.80;;;4.50;99.90;;;;;;4974599;28;20212;-83
2022/12/09 02:20:00;;;;;;;6.85;6.15;;;4.50;99.90;;;;;;4974278;28;20353;-83
2022/12/09 02:22:32;;;;;;;7.13;6.38;;;4.50;99.90;;;;;;4974861;28;20208;-89
2022/12/09 02:25:12;;;;;;;6.93;5.82;;;4.50;99.90;;;;;;4974553;28;20264;-89
2022/12/09 02:27:46;;;;;;;8.55;6.90;;;4.50;99.90;;;;;;4974314;28;20263;-83
2022/12/09 02:30:17;;;;;;;9.82;7.32;;;4.50;99.90;;;;;;4974535;28;20212;-83
2022/12/09 02:33:09;;;;;;;9.88;7.68;;;4.50;99.90;;;;;;4974281;28;20222;-84
2022/12/09 02:35:44;;;;;;;15.35;6.90;;;4.50;99.90;;;;;;4974166;28;20259;-83
2022/12/09 02:38:17;;;;;;;7.57;5.95;;;4.50;99.90;;;;;;4974262;28;20211;-83
2022/12/09 02:40:50;;;;;;;6.95;6.25;;;4.50;99.90;;;;;;4974257;28;20228;-83
2022/12/09 02:43:22;;;;;;;7.32;6.63;;;4.50;99.90;;;;;;4974237;28;20235;-83
2022/12/09 02:45:51;;;;;;;11.00;7.53;;;4.50;99.90;;;;;;4973916;28;20209;-83
2022/12/09 02:48:24;;;;;;;6.35;5.82;;;4.50;99.90;;;;;;4974149;28;20255;-83
2022/12/09 02:50:59;;;;;;;8.90;7.97;;;4.50;99.90;;;;;;4974585;28;20215;-83
2022/12/09 02:53:28;;;;;;;7.53;6.82;;;4.50;99.90;;;;;;4974130;28;20259;-89
2022/12/09 02:55:57;;;;;;;6.78;6.15;;;4.50;99.90;;;;;;4974411;28;20246;-89
2022/12/09 02:58:25;;;;;;;7.05;6.35;;;4.50;99.90;;;;;;4973886;28;20215;-89
2022/12/09 03:00:56;;;;;;;9.63;7.47;;;4.50;99.90;;;;;;4974089;28;20221;-89
2022/12/09 03:03:26;;;;;;;9.38;7.30;;;4.50;99.90;;;;;;4974204;28;20252;-89
2022/12/09 03:06:04;;;;;;;9.13;8.05;;;4.60;99.90;;;;;;4973596;28;20204;-89
2022/12/09 03:08:42;;;;;;;9.40;7.72;;;4.60;99.90;;;;;;4974219;28;20216;-89
2022/12/09 03:11:13;;;;;;;10.20;8.48;;;4.60;99.90;;;;;;4973830;28;20218;-89
2022/12/09 03:13:52;;;;;;;10.65;9.23;;;4.50;99.90;;;;;;4973559;28;20221;-89
2022/12/09 03:16:25;;;;;;;13.38;9.82;;;4.60;99.90;;;;;;4974041;28;20211;-89
2022/12/09 03:19:01;;;;;;;9.57;8.68;;;4.50;99.90;;;;;;4973767;28;20246;-89
2022/12/09 03:21:34;;;;;;;12.77;10.40;;;4.60;99.90;;;;;;4973506;28;20228;-83
2022/12/09 03:24:04;;;;;;;13.02;11.32;;;4.60;99.90;;;;;;4973645;28;20231;-83
2022/12/09 03:26:37;;;;;;;17.55;11.70;;;4.50;99.90;;;;;;4973609;28;20337;-83
2022/12/09 03:29:11;;;;;;;12.57;11.30;;;4.50;99.90;;;;;;4974130;28;20212;-89
2022/12/09 03:31:40;;;;;;;15.65;12.07;;;4.50;99.90;;;;;;4973687;28;20232;-89
2022/12/09 03:34:11;;;;;;;13.57;12.23;;;4.50;99.90;;;;;;4973461;28;20233;-89
2022/12/09 03:36:43;;;;;;;15.40;13.38;;;4.50;99.90;;;;;;4973655;28;20217;-89
2022/12/09 03:39:15;;;;;;;15.50;12.32;;;4.50;99.90;;;;;;4973880;28;20208;-89
2022/12/09 03:41:46;;;;;;;14.68;12.85;;;4.50;99.90;;;;;;4973812;28;20224;-89
2022/12/09 03:44:20;;;;;;;13.63;12.07;;;4.50;99.90;;;;;;4973837;28;20228;-89
2022/12/09 03:46:49;;;;;;;20.52;13.77;;;4.50;99.90;;;;;;4973871;28;20216;-89
2022/12/09 03:49:18;;;;;;;15.05;12.52;;;4.40;99.90;;;;;;4977285;28;20212;-89
2022/12/09 03:51:51;;;;;;;15.80;12.75;;;4.40;99.90;;;;;;4977488;28;20216;-88
2022/12/09 03:54:23;;;;;;;13.80;11.40;;;4.40;99.90;;;;;;4977394;28;20228;-89
2022/12/09 03:56:54;;;;;;;19.17;12.40;;;4.40;99.90;;;;;;4977015;28;20209;-89
2022/12/09 03:59:28;;;;;;;17.75;10.88;;;4.40;99.90;;;;;;4976992;28;20212;-89
2022/12/09 04:01:56;;;;;;;11.75;10.52;;;4.40;99.90;;;;;;4977470;28;20229;-89
2022/12/09 04:04:26;;;;;;;13.82;10.43;;;4.30;99.90;;;;;;4977304;28;20235;-88
2022/12/09 04:06:57;;;;;;;10.13;9.13;;;4.30;99.90;;;;;;4977250;28;20240;-89
2022/12/09 04:09:25;;;;;;;11.98;9.25;;;4.30;99.90;;;;;;4977252;28;20291;-89
2022/12/09 04:11:54;;;;;;;9.10;8.20;;;4.30;99.90;;;;;;4976857;28;20211;-88
2022/12/09 04:14:22;;;;;;;13.18;9.68;;;4.20;99.90;;;;;;4976610;28;20224;-88
2022/12/09 04:16:50;;;;;;;10.55;9.13;;;4.30;99.90;;;;;;4977220;28;20217;-88
2022/12/09 04:19:19;;;;;;;10.75;8.43;;;4.30;99.90;;;;;;4976991;28;20209;-89
2022/12/09 04:21:47;;;;;;;9.30;8.35;;;4.30;99.90;;;;;;4976801;28;20224;-89
2022/12/09 04:24:17;;;;;;;10.52;8.85;;;4.30;99.90;;;;;;4976444;28;20239;-89
2022/12/09 04:26:46;;;;;;;10.70;9.00;;;4.30;99.90;;;;;;4976545;28;20208;-89
2022/12/09 04:29:14;;;;;;;9.20;8.30;;;4.30;99.90;;;;;;4976648;28;20217;-89
2022/12/09 04:31:43;;;;;;;10.00;8.57;;;4.30;99.90;;;;;;4976786;28;20215;-89
2022/12/09 04:34:11;;;;;;;12.02;9.48;;;4.30;99.90;;;;;;4976598;28;20315;-83
2022/12/09 04:36:40;;;;;;;9.68;8.73;;;4.30;99.90;;;;;;4976410;28;20212;-83
2022/12/09 04:39:08;;;;;;;10.50;9.40;;;4.30;99.90;;;;;;4976382;28;20212;-88
2022/12/09 04:41:39;;;;;;;14.85;8.55;;;4.20;99.90;;;;;;4976362;28;20228;-89
2022/12/09 04:44:07;;;;;;;10.23;8.98;;;4.20;99.90;;;;;;4975986;28;20239;-88
2022/12/09 04:46:36;;;;;;;9.38;8.35;;;4.20;99.90;;;;;;4976740;28;20211;-89
2022/12/09 04:49:05;;;;;;;10.15;8.23;;;4.20;99.90;;;;;;4976589;28;20223;-88
2022/12/09 04:51:33;;;;;;;9.18;7.45;;;4.20;99.90;;;;;;4976323;28;20218;-88
2022/12/09 04:54:07;;;;;;;8.82;7.97;;;4.20;99.90;;;;;;4976259;28;20228;-89
2022/12/09 04:56:36;;;;;;;12.18;9.75;;;4.20;99.90;;;;;;4976147;28;20211;-88
2022/12/09 04:59:06;;;;;;;11.23;8.50;;;4.20;99.90;;;;;;4975950;28;20200;-89
2022/12/09 05:01:35;;;;;;;9.00;8.10;;;4.20;99.90;;;;;;4976131;28;20224;-88
2022/12/09 05:04:04;;;;;;;11.88;8.48;;;4.20;99.90;;;;;;4976002;28;20229;-89
2022/12/09 05:06:33;;;;;;;10.90;8.27;;;4.20;99.90;;;;;;4976197;28;20212;-89
2022/12/09 05:09:02;;;;;;;7.47;6.78;;;4.20;99.90;;;;;;4975863;28;20205;-89
2022/12/09 05:11:31;;;;;;;8.48;7.68;;;4.20;99.90;;;;;;4975640;28;20259;-83
2022/12/09 05:14:00;;;;;;;8.63;7.78;;;4.20;99.90;;;;;;4975654;28;20233;-83
2022/12/09 05:16:32;;;;;;;9.45;8.48;;;4.20;99.90;;;;;;4975743;28;20212;-83
2022/12/09 05:19:01;;;;;;;10.38;8.65;;;4.20;99.90;;;;;;4975416;28;20219;-83
2022/12/09 05:21:30;;;;;;;9.15;8.02;;;4.20;99.90;;;;;;4975934;28;20256;-83
2022/12/09 05:23:59;;;;;;;11.82;10.10;;;4.10;99.90;;;;;;4975614;28;20303;-83
2022/12/09 05:26:27;;;;;;;12.13;8.45;;;4.20;99.90;;;;;;4976064;28;20212;-84
2022/12/09 05:28:56;;;;;;;8.40;7.60;;;4.20;99.90;;;;;;4975721;28;20205;-84
2022/12/09 05:31:24;;;;;;;13.75;8.85;;;4.10;99.90;;;;;;4975595;28;20261;-83
2022/12/09 05:33:55;;;;;;;10.95;8.40;;;4.10;99.90;;;;;;4975434;28;20229;-83
2022/12/09 05:36:26;;;;;;;8.32;7.57;;;4.00;99.90;;;;;;4975491;28;20214;-83
2022/12/09 05:38:55;;;;;;;12.07;9.70;;;3.90;99.90;;;;;;4975627;28;20216;-83
2022/12/09 05:41:24;;;;;;;9.43;8.48;;;3.90;99.90;;;;;;4975170;28;20224;-89
2022/12/09 05:43:53;;;;;;;11.75;8.52;;;3.90;99.90;;;;;;4975202;28;20229;-89
2022/12/09 05:46:22;;;;;;;9.88;8.77;;;3.90;99.90;;;;;;4975093;28;20212;-89
2022/12/09 05:48:50;;;;;;;8.88;8.05;;;3.90;99.90;;;;;;4974926;28;20223;-89
2022/12/09 05:51:24;;;;;;;10.98;8.75;;;3.90;99.90;;;;;;4975123;28;20220;-89
2022/12/09 05:53:53;;;;;;;12.50;9.30;;;3.80;99.90;;;;;;4975319;28;20319;-89
2022/12/09 05:56:23;;;;;;;12.30;10.07;;;3.80;99.90;;;;;;4974928;28;20208;-88
2022/12/09 05:58:53;;;;;;;12.27;8.98;;;3.80;99.90;;;;;;4975076;28;20204;-88
2022/12/09 06:01:22;;;;;;;13.35;9.15;;;3.70;99.90;;;;;;4975282;28;20209;-89
2022/12/09 06:03:52;;;;;;;9.45;8.50;;;3.70;99.90;;;;;;4974620;28;20232;-89
2022/12/09 06:06:26;;;;;;;11.82;10.05;;;3.80;99.90;;;;;;4975211;28;20204;-88
2022/12/09 06:08:57;;;;;;;11.32;9.27;;;3.80;99.90;;;;;;4974801;28;20214;-88
2022/12/09 06:11:27;;;;;;;14.82;9.77;;;3.80;99.90;;;;;;4974106;28;20215;-89
2022/12/09 06:13:56;;;;;;;10.07;9.02;;;3.70;99.90;;;;;;4974682;28;20256;-89
2022/12/09 06:16:25;;;;;;;10.38;8.95;;;3.70;99.90;;;;;;4974692;28;20211;-85
2022/12/09 06:18:54;;;;;;;14.05;10.85;;;3.60;99.90;;;;;;4974700;28;20209;-83
2022/12/09 06:21:24;;;;;;;10.90;9.60;;;3.60;99.90;;;;;;4974557;28;20288;-84
2022/12/09 06:23:53;;;;;;;11.18;10.07;;;3.60;99.90;;;;;;4974280;28;20256;-83
2022/12/09 06:26:24;;;;;;;14.82;11.32;;;3.60;99.90;;;;;;4974357;28;20216;-89
2022/12/09 06:28:54;;;;;;;12.93;10.10;;;3.60;99.90;;;;;;4974268;28;20212;-89
2022/12/09 06:31:23;;;;;;;11.13;9.95;;;3.50;99.90;;;;;;4974316;28;20239;-83
2022/12/09 06:33:52;;;;;;;11.05;9.55;;;3.60;99.90;;;;;;4974522;28;20239;-90
2022/12/09 06:36:27;;;;;;;18.70;10.98;;;3.60;99.90;;;;;;4974076;28;20212;-89
2022/12/09 06:38:57;;;;;;;9.80;8.90;;;3.60;99.90;;;;;;4974181;28;20212;-89
2022/12/09 06:41:34;;;;;;;13.60;11.43;;;3.60;99.90;;;;;;4973910;28;20216;-89
2022/12/09 06:44:03;;;;;;;10.85;9.68;;;3.70;99.90;;;;;;4974330;28;20315;-89
2022/12/09 06:46:32;;;;;;;11.73;10.10;;;3.60;99.90;;;;;;4974289;28;20291;-89
2022/12/09 06:49:00;;;;;;;10.75;9.65;;;3.60;99.90;;;;;;4973598;28;20211;-89
2022/12/09 06:51:31;;;;;;;10.18;9.18;;;3.70;99.90;;;;;;4973777;28;20239;-89
2022/12/09 06:53:59;;;;;;;12.73;10.93;;;3.70;99.90;;;;;;4974464;28;20311;-88
2022/12/09 06:56:27;;;;;;;13.38;10.75;;;3.70;99.90;;;;;;4974108;28;20205;-91
2022/12/09 06:58:56;;;;;;;10.38;9.38;;;3.70;99.90;;;;;;4974373;28;20204;-89
2022/12/09 07:01:25;;;;;;;10.52;8.90;;;3.70;99.90;;;;;;4974050;28;20220;-88
2022/12/09 07:03:55;;;;;;;10.73;9.70;;;3.70;99.90;;;;;;4973474;28;20232;-88
2022/12/09 07:06:28;;;;;;;11.35;10.18;;;3.70;99.90;;;;;;4973777;28;20212;-89
2022/12/09 07:09:00;;;;;;;12.88;10.52;;;3.70;99.90;;;;;;4973917;28;20212;-89
2022/12/09 07:11:29;;;;;;;14.60;11.05;;;3.70;99.90;;;;;;4973705;28;20235;-89
2022/12/09 07:13:58;;;;;;;16.58;10.93;;;3.80;99.90;;;;;;4973638;28;20239;-89
2022/12/09 07:16:28;;;;;;;11.05;9.13;;;3.80;99.90;;;;;;4973460;28;20212;-89
2022/12/09 07:18:57;;;;;;;11.07;9.65;;;3.80;99.90;;;;;;4973505;28;20267;-89
2022/12/09 07:21:27;;;;;;;9.35;8.48;;;3.70;99.90;;;;;;4974966;28;20219;-89
2022/12/09 07:23:58;;;;;;;14.02;10.50;;;3.70;99.90;;;;;;4978047;28;20228;-89
2022/12/09 07:26:31;;;;;;;10.13;9.13;;;3.80;99.90;;;;;;4977880;28;20211;-89
2022/12/09 07:29:02;;;;;;;11.85;10.15;;;3.70;99.90;;;;;;4977950;28;20298;-89
2022/12/09 07:31:31;;;;;;;12.82;10.77;;;3.70;99.90;;;;;;4977296;28;20250;-90
2022/12/09 07:34:00;;;;;;;13.82;10.70;;;3.70;99.90;;;;;;4977396;28;20286;-89
2022/12/09 07:36:30;;;;;;;12.98;10.95;;;3.80;99.90;;;;;;4977569;28;20208;-89
2022/12/09 07:39:00;;;;;;;9.35;8.45;;;3.80;99.90;;;;;;4977767;28;20271;-89
2022/12/09 07:41:31;;;;;;;13.25;11.02;;;3.80;99.90;;;;;;4977493;28;20207;-88
2022/12/09 07:43:59;;;;;;;19.75;10.65;;;3.80;99.90;;;;;;4976822;28;20263;-89
2022/12/09 07:46:28;;;;;;;17.45;11.70;;;3.80;99.90;;;;;;4977622;28;20227;-89
2022/12/09 07:48:57;;;;;;;13.05;10.43;;;3.90;99.90;;;;;;4977013;28;20217;-89
2022/12/09 07:51:28;;;;;;;12.00;10.63;;;3.90;99.90;;;;;;4977769;28;20212;-91
2022/12/09 07:53:57;;;;;;;15.73;11.18;;;3.90;99.90;;;;;;4977267;28;20228;-91
2022/12/09 07:56:27;;;;;;;14.60;11.70;;;3.90;99.90;;;;;;4977364;28;20216;-91
2022/12/09 07:58:58;;;;;;;13.70;10.52;;;3.90;99.90;;;;;;4976975;28;20263;-91
2022/12/09 08:01:29;;;;;;;13.52;10.48;;;3.90;99.90;;;;;;4977146;28;20208;-91
2022/12/09 08:03:58;;;;;;;12.75;11.35;;;3.90;99.90;;;;;;4976826;28;20228;-90
2022/12/09 08:06:29;;;;;;;11.68;10.50;;;3.90;99.90;;;;;;4977229;28;20223;-90
2022/12/09 08:08:59;;;;;;;13.68;12.20;;;3.90;99.90;;;;;;4976865;28;20271;-88
2022/12/09 08:11:30;;;;;;;13.10;11.18;;;4.00;99.90;;;;;;4976580;28;20208;-89
2022/12/09 08:14:01;;;;;;;14.32;11.32;;;4.00;99.90;;;;;;4976822;28;20231;-89
2022/12/09 08:16:38;;;;;;;13.93;11.27;;;4.00;99.90;;;;;;4977105;28;20212;-89
2022/12/09 08:19:07;;;;;;;11.70;10.40;;;4.00;99.90;;;;;;4976700;28;20215;-89
2022/12/09 08:21:36;;;;;;;19.52;11.90;;;4.00;99.90;;;;;;4976776;28;20204;-89
2022/12/09 08:24:06;;;;;;;14.18;11.85;;;4.00;99.90;;;;;;4976205;28;20232;-88
2022/12/09 08:26:38;;;;;;;17.85;11.70;;;3.90;99.90;;;;;;4976465;28;20213;-89
2022/12/09 08:29:10;;;;;;;12.10;10.48;;;3.90;99.90;;;;;;4976751;28;20268;-89
2022/12/09 08:31:41;;;;;;;15.85;12.75;;;3.90;99.90;;;;;;4976875;28;20212;-89
2022/12/09 08:34:11;;;;;;;12.88;11.52;;;3.90;99.90;;;;;;4975513;28;20258;-89
2022/12/09 08:36:40;;;;;;;13.98;11.90;;;3.90;99.90;;;;;;4976161;28;20208;-89
2022/12/09 08:39:08;;;;;;;14.05;11.80;;;3.90;99.90;;;;;;4976393;28;20308;-89
2022/12/09 08:41:38;;;;;;;15.65;12.55;;;3.90;99.90;;;;;;4976345;28;20208;-91
2022/12/09 08:44:10;;;;;;;16.25;12.95;;;3.90;99.90;;;;;;4976050;28;20232;-89
2022/12/09 08:46:41;;;;;;;13.52;11.95;;;3.90;99.90;;;;;;4976334;28;20208;-89
2022/12/09 08:49:10;;;;;;;15.43;12.00;;;4.00;99.90;;;;;;4976174;28;20216;-88
2022/12/09 08:51:39;;;;;;;12.40;10.95;;;4.00;99.90;;;;;;4976377;28;20224;-89
2022/12/09 08:54:08;;;;;;;21.23;13.00;;;4.00;99.90;;;;;;4976193;28;20286;-88
2022/12/09 08:56:37;;;;;;;15.65;12.25;;;4.00;99.90;;;;;;4976418;28;20299;-89
2022/12/09 08:59:06;;;;;;;13.68;11.93;;;4.00;99.90;;;;;;4975975;28;20295;-89
2022/12/09 09:01:36;;;;;;;15.75;13.20;;;4.00;99.90;;;;;;4975859;28;20263;-89
2022/12/09 09:04:07;;;;;;;19.02;13.13;;;4.00;99.90;;;;;;4975740;28;20236;-89
2022/12/09 09:06:38;;;;;;;18.35;14.45;;;4.00;99.90;;;;;;4975668;28;20247;-89
2022/12/09 09:09:09;;;;;;;24.40;13.80;;;4.00;99.90;;;;;;4975896;28;20201;-88
2022/12/09 09:11:38;;;;;;;20.20;15.25;;;4.10;99.90;;;;;;4975831;28;20208;-88
2022/12/09 09:14:09;;;;;;;15.07;12.75;;;4.10;99.90;;;;;;4975645;28;20240;-89
2022/12/09 09:16:41;;;;;;;14.40;12.85;;;4.20;99.90;;;;;;4975943;28;20208;-88
2022/12/09 09:19:15;;;;;;;15.75;13.98;;;4.20;99.90;;;;;;4975687;28;20217;-84
2022/12/09 09:21:43;;;;;;;16.80;13.20;;;4.20;99.90;;;;;;4975775;28;20213;-83
2022/12/09 09:24:14;;;;;;;19.92;14.23;;;4.20;99.90;;;;;;4975112;28;20232;-83
2022/12/09 09:26:43;;;;;;;19.15;15.23;;;4.20;99.90;;;;;;4975484;28;20212;-83
2022/12/09 09:29:13;;;;;;;27.33;15.07;;;4.20;99.90;;;;;;4975569;28;20334;-83
2022/12/09 09:31:46;;;;;;;18.20;14.73;;;4.20;99.90;;;;;;4975531;28;20214;-89
2022/12/09 09:34:17;;;;;;;23.50;15.40;;;4.30;99.90;;;;;;4975414;28;20239;-88
2022/12/09 09:36:46;;;;;;;17.83;14.38;;;4.30;99.90;;;;;;4975159;28;20216;-89
2022/12/09 09:39:15;;;;;;;17.25;15.05;;;4.20;99.90;;;;;;4975228;28;20204;-88
2022/12/09 09:41:51;;;;;;;17.73;14.38;;;4.30;99.90;;;;;;4975215;28;20227;-89
2022/12/09 09:44:26;;;;;;;24.35;15.63;;;4.30;99.90;;;;;;4974083;28;20224;-89
2022/12/09 09:46:57;;;;;;;21.75;15.15;;;4.30;99.90;;;;;;4975410;28;20295;-88
2022/12/09 09:49:35;;;;;;;20.48;15.70;;;4.30;99.90;;;;;;4975037;28;20220;-89
2022/12/09 09:52:09;;;;;;;21.67;15.30;;;4.30;99.90;;;;;;4975533;28;20231;-89
2022/12/09 09:54:38;;;;;;;21.55;14.38;;;4.30;99.90;;;;;;4974769;28;20235;-89
2022/12/09 09:57:15;;;;;;;22.90;16.30;;;4.30;99.90;;;;;;4974813;28;20299;-89
2022/12/09 09:59:55;;;;;;;22.85;15.02;;;4.40;99.90;;;;;;4975152;28;20220;-89
2022/12/09 10:02:45;;;;;;;19.30;14.55;;;4.40;99.90;;;;;;4975165;28;20208;-89
2022/12/09 10:05:22;;;;;;;17.27;13.75;;;4.40;99.90;;;;;;4974842;28;20331;-89
2022/12/09 10:07:55;;;;;;;18.65;13.75;;;4.50;99.90;;;;;;4974585;28;20212;-89
2022/12/09 10:10:38;;;;;;;19.52;14.50;;;4.50;99.90;;;;;;4974631;28;20303;-89
2022/12/09 10:13:30;;;;;;;20.58;13.50;;;4.60;99.90;;;;;;4974743;28;20228;-89
2022/12/09 10:16:09;;;;;;;12.50;10.93;;;4.60;99.90;;;;;;4974894;28;20319;-88
2022/12/09 10:18:48;;;;;;;18.02;13.10;;;4.60;99.90;;;;;;4974466;28;20295;-89
2022/12/09 10:21:19;;;;;;;14.65;12.30;;;4.50;99.90;;;;;;4974425;28;20220;-89
2022/12/09 10:23:49;;;;;;;13.00;11.65;;;4.60;99.90;;;;;;4974256;28;20224;-90
2022/12/09 10:26:25;;;;;;;20.40;13.27;;;4.60;99.90;;;;;;4975934;28;20212;-83
2022/12/09 10:29:04;;;;;;;13.52;10.95;;;4.60;99.90;;;;;;4974503;28;20243;-89
2022/12/09 10:31:34;;;;;;;14.13;12.00;;;4.60;99.90;;;;;;4974915;28;20295;-90
2022/12/09 10:34:05;;;;;;;12.23;10.93;;;4.60;99.90;;;;;;4974320;28;20299;-89
2022/12/09 10:36:34;;;;;;;15.68;10.95;;;4.60;99.90;;;;;;4974305;28;20519;-90
2022/12/09 10:39:04;;;;;;;16.05;12.15;;;4.60;99.90;;;;;;4974107;28;20208;-89
2022/12/09 10:44:29;;;;;;;18.85;12.68;;;4.60;99.90;;;;;;4973899;28;20238;-89
2022/12/09 10:46:59;;;;;;;12.50;10.27;;;4.60;99.90;;;;;;4974008;28;20229;-89
2022/12/09 10:49:30;;;;;;;16.33;11.45;;;4.60;99.90;;;;;;4973809;28;20212;-89
2022/12/09 10:51:59;;;;;;;14.43;11.07;;;4.70;99.90;;;;;;4974400;28;20220;-89
2022/12/09 10:54:35;;;;;;;14.93;10.38;;;4.70;99.90;;;;;;4974420;28;20235;-89
2022/12/09 10:57:23;;;;;;;11.65;9.75;;;4.70;99.90;;;;;;4973632;28;20219;-89
2022/12/09 11:00:00;;;;;;;12.50;9.68;;;4.80;99.90;;;;;;4972272;28;20299;-89
2022/12/09 11:02:32;;;;;;;11.52;9.52;;;4.90;99.90;;;;;;4974089;28;20295;-89
2022/12/09 11:05:23;;;;;;;12.02;9.18;;;5.00;99.90;;;;;;4973980;28;20255;-89
2022/12/09 11:07:54;;;;;;;17.00;9.20;;;5.00;99.90;;;;;;4974157;28;20271;-89
2022/12/09 11:10:25;;;;;;;12.50;9.13;;;5.10;99.90;;;;;;4974043;28;20242;-89
2022/12/09 11:13:02;;;;;;;9.88;8.88;;;5.10;99.90;;;;;;4974040;28;20319;-89
2022/12/09 11:15:37;;;;;;;11.00;8.95;;;5.10;99.90;;;;;;4973676;28;20200;-83
2022/12/09 11:18:08;;;;;;;8.38;7.57;;;5.10;99.90;;;;;;4973934;28;20215;-83
2022/12/09 11:20:39;;;;;;;9.60;8.25;;;5.20;99.90;;;;;;4974342;28;20268;-83
2022/12/09 11:23:16;;;;;;;12.35;8.68;;;5.20;99.90;;;;;;4973988;28;20229;-83
2022/12/09 11:25:53;;;;;;;8.95;7.78;;;5.20;99.90;;;;;;4973457;28;20235;-83
2022/12/09 11:28:26;;;;;;;8.32;7.53;;;5.30;99.90;;;;;;4973535;28;20208;-83
2022/12/09 11:30:57;;;;;;;10.07;7.25;;;5.30;99.90;;;;;;4974088;28;20209;-89
2022/12/09 11:33:50;;;;;;;8.38;7.57;;;5.30;99.90;;;;;;4973530;28;20239;-89
2022/12/09 11:36:25;;;;;;;9.38;7.97;;;5.30;99.90;;;;;;4973843;28;20216;-89
2022/12/09 11:39:15;;;;;;;7.47;6.72;;;5.30;99.90;;;;;;4973998;28;20216;-89
2022/12/09 11:44:44;;;;;;;10.30;7.63;;;5.30;99.90;;;;;;4973640;28;20292;-89
2022/12/09 11:47:20;;;;;;;8.13;6.72;;;5.40;99.90;;;;;;4973504;28;20205;-89
2022/12/09 11:49:51;;;;;;;8.60;7.30;;;5.40;99.90;;;;;;4973626;28;20220;-89
2022/12/09 11:52:27;;;;;;;10.88;7.57;;;5.50;99.90;;;;;;4973582;28;20220;-89
2022/12/09 11:55:11;;;;;;;8.32;7.50;;;5.50;99.90;;;;;;4973642;28;20311;-89
2022/12/09 11:57:46;;;;;;;8.50;7.70;;;5.50;99.90;;;;;;4973546;28;20212;-89
2022/12/09 12:00:19;;;;;;;8.55;6.90;;;5.60;99.90;;;;;;4973890;28;20260;-89
2022/12/09 12:02:54;;;;;;;9.20;7.95;;;5.60;99.90;;;;;;4973538;28;20315;-89
2022/12/09 12:05:25;;;;;;;10.45;8.15;;;5.70;99.90;;;;;;4973330;28;20219;-89
2022/12/09 12:08:05;;;;;;;8.50;6.70;;;5.80;99.90;;;;;;4974354;28;20292;-89
2022/12/09 12:10:37;;;;;;;9.70;7.55;;;5.70;99.90;;;;;;4977116;28;20247;-89
2022/12/09 12:13:14;;;;;;;16.27;7.65;;;5.80;99.90;;;;;;4977205;28;20307;-89
2022/12/09 12:15:50;;;;;;;7.70;6.97;;;5.80;99.90;;;;;;4976696;28;20232;-89
2022/12/09 12:18:20;;;;;;;7.55;6.72;;;5.90;99.90;;;;;;4976717;28;20310;-84
2022/12/09 12:21:11;;;;;;;8.10;7.30;;;5.90;99.90;;;;;;4977017;28;20218;-84
2022/12/09 12:23:58;;;;;;;19.52;8.00;;;5.80;99.90;;;;;;4976659;28;20228;-83
2022/12/09 12:26:32;;;;;;;8.30;7.45;;;5.80;99.90;;;;;;4976734;28;20225;-83
2022/12/09 12:29:18;;;;;;;7.45;6.70;;;5.80;99.90;;;;;;4976538;28;20296;-84
2022/12/09 12:32:01;;;;;;;11.60;7.50;;;5.70;99.90;;;;;;4976896;28;20299;-84
2022/12/09 12:34:39;;;;;;;7.47;6.68;;;5.70;99.90;;;;;;4976256;28;20228;-83
2022/12/09 12:37:26;;;;;;;7.68;6.88;;;5.70;99.90;;;;;;4976662;28;20238;-90
2022/12/09 12:40:04;;;;;;;10.30;8.05;;;5.60;99.90;;;;;;4977034;28;20291;-90
2022/12/09 12:46:15;;;;;;;9.43;7.35;;;5.60;99.90;;;;;;4976419;28;20291;-91
2022/12/09 12:48:39;;;;;;;7.05;6.20;;;5.50;99.90;;;;;;4976159;28;20216;-90
2022/12/09 12:51:19;;;;;;;9.27;8.27;;;5.40;99.90;;;;;;4976446;28;20220;-90
2022/12/09 12:53:57;;;;;;;10.20;7.90;;;5.30;99.90;;;;;;4976541;28;20320;-90
2022/12/09 12:56:32;;;;;;;14.48;8.30;;;5.30;99.90;;;;;;4976750;28;20200;-90
2022/12/09 12:59:07;;;;;;;9.35;7.20;;;5.30;99.90;;;;;;4975918;28;20243;-89
2022/12/09 13:01:46;;;;;;;8.00;7.20;;;5.30;99.90;;;;;;4976016;28;20267;-90
2022/12/09 13:04:21;;;;;;;8.15;7.10;;;5.30;99.90;;;;;;4975985;28;20238;-89
2022/12/09 13:06:55;;;;;;;6.25;5.65;;;5.20;99.90;;;;;;4975853;28;20283;-88
2022/12/09 13:09:31;;;;;;;7.13;6.43;;;5.30;99.90;;;;;;4976041;28;20218;-88
2022/12/09 13:12:07;;;;;;;8.85;7.15;;;5.20;99.90;;;;;;4975982;28;20242;-88
2022/12/09 13:14:42;;;;;;;7.22;6.55;;;5.20;99.90;;;;;;4975715;28;20315;-88
2022/12/09 13:17:21;;;;;;;9.80;6.28;;;5.10;99.90;;;;;;4975769;28;20255;-88
2022/12/09 13:19:52;;;;;;;7.75;6.63;;;5.10;99.90;;;;;;4975544;28;20231;-88